createdAt,value
2023-04-29T00:02:20.214Z,45.17
2023-04-29T00:04:49.404Z,39.13
2023-04-29T00:07:18.117Z,42.30
2023-04-29T00:09:46.929Z,38.17
2023-04-29T00:12:15.516Z,45.00
2023-04-29T00:14:45.478Z,45.13
2023-04-29T00:17:14.188Z,38.73
2023-04-29T00:19:43.486Z,41.93
2023-04-29T00:22:12.117Z,54.13
2023-04-29T00:24:40.740Z,38.07
2023-04-29T00:27:10.781Z,43.57
2023-04-29T00:29:39.530Z,41.07
2023-04-29T00:32:09.490Z,52.00
2023-04-29T00:34:38.077Z,44.43
2023-04-29T00:37:06.791Z,50.23
2023-04-29T00:39:36.793Z,41.80
2023-04-29T00:42:05.663Z,46.47
2023-04-29T00:44:34.251Z,48.50
2023-04-29T00:47:03.061Z,48.80
2023-04-29T00:49:33.052Z,40.93
2023-04-29T00:52:04.046Z,40.67
2023-04-29T00:54:32.669Z,38.80
2023-04-29T00:57:04.050Z,43.97
2023-04-29T00:59:33.296Z,38.23
2023-04-29T01:02:03.004Z,38.77
2023-04-29T01:04:33.211Z,33.40
2023-04-29T01:07:15.513Z,44.63
2023-04-29T01:09:59.356Z,35.83
2023-04-29T01:12:36.323Z,44.80
2023-04-29T01:15:07.510Z,47.80
2023-04-29T01:17:41.371Z,31.67
2023-04-29T01:20:13.311Z,35.63
2023-04-29T01:22:43.571Z,35.90
2023-04-29T01:25:13.713Z,31.73
2023-04-29T01:27:52.152Z,28.30
2023-04-29T01:30:33.574Z,33.20
2023-04-29T01:33:07.998Z,43.57
2023-04-29T01:35:47.933Z,32.97
2023-04-29T01:38:24.826Z,29.80
2023-04-29T01:41:05.988Z,31.13
2023-04-29T01:43:37.472Z,28.37
2023-04-29T01:46:10.975Z,36.80
2023-04-29T01:48:40.780Z,28.03
2023-04-29T01:51:09.522Z,29.60
2023-04-29T01:53:40.535Z,32.43
2023-04-29T01:56:10.897Z,28.03
2023-04-29T01:58:39.533Z,35.57
2023-04-29T02:01:10.537Z,36.63
2023-04-29T02:03:39.347Z,25.43
2023-04-29T02:06:08.235Z,35.27
2023-04-29T02:08:37.389Z,29.17
2023-04-29T02:11:06.746Z,31.87
2023-04-29T02:13:36.968Z,31.40
2023-04-29T02:16:11.770Z,41.53
2023-04-29T02:18:41.153Z,26.63
2023-04-29T02:21:10.038Z,31.70
2023-04-29T02:23:38.712Z,28.07
2023-04-29T02:26:07.520Z,39.03
2023-04-29T02:28:38.868Z,28.23
2023-04-29T02:31:07.637Z,34.83
2023-04-29T02:33:36.234Z,25.37
2023-04-29T02:36:05.438Z,35.67
2023-04-29T02:38:34.106Z,29.83
2023-04-29T02:41:02.865Z,34.17
2023-04-29T02:43:31.977Z,35.17
2023-04-29T02:46:04.538Z,28.90
2023-04-29T02:48:33.274Z,34.07
2023-04-29T02:51:01.867Z,38.00
2023-04-29T02:53:30.482Z,30.23
2023-04-29T02:55:59.169Z,33.03
2023-04-29T02:58:27.877Z,32.47
2023-04-29T03:00:56.639Z,30.63
2023-04-29T03:03:26.905Z,30.10
2023-04-29T03:05:55.579Z,38.37
2023-04-29T03:08:24.317Z,28.70
2023-04-29T03:10:52.880Z,32.13
2023-04-29T03:13:21.657Z,31.63
2023-04-29T03:15:50.297Z,24.33
2023-04-29T03:18:19.167Z,29.77
2023-04-29T03:20:49.223Z,30.80
2023-04-29T03:23:17.879Z,29.27
2023-04-29T03:25:46.526Z,27.27
2023-04-29T03:28:15.217Z,34.37
2023-04-29T03:30:43.799Z,25.13
2023-04-29T03:33:12.431Z,32.60
2023-04-29T03:35:41.127Z,30.90
2023-04-29T03:38:11.202Z,32.20
2023-04-29T03:40:39.908Z,29.23
2023-04-29T03:43:09.266Z,33.57
2023-04-29T03:45:40.853Z,34.83
2023-04-29T03:48:09.576Z,34.60
2023-04-29T03:50:38.612Z,33.63
2023-04-29T03:53:08.351Z,43.00
2023-04-29T03:55:38.313Z,32.27
2023-04-29T03:58:06.881Z,36.80
2023-04-29T04:00:35.647Z,33.93
2023-04-29T04:03:05.870Z,31.63
2023-04-29T04:05:34.733Z,38.27
2023-04-29T04:08:03.419Z,34.57
2023-04-29T04:10:32.114Z,32.93
2023-04-29T04:13:02.051Z,33.10
2023-04-29T04:15:30.700Z,33.63
2023-04-29T04:17:59.339Z,33.33
2023-04-29T04:20:28.117Z,28.37
2023-04-29T04:22:56.722Z,34.53
2023-04-29T04:25:25.616Z,33.93
2023-04-29T04:27:54.472Z,33.13
2023-04-29T04:30:24.553Z,29.73
2023-04-29T04:32:53.305Z,32.37
2023-04-29T04:35:22.075Z,32.70
2023-04-29T04:37:50.794Z,27.67
2023-04-29T04:40:19.718Z,32.90
2023-04-29T04:42:48.379Z,36.53
2023-04-29T04:45:20.443Z,35.33
2023-04-29T04:47:55.140Z,30.40
2023-04-29T04:50:23.833Z,39.43
2023-04-29T04:52:52.496Z,26.90
2023-04-29T04:55:21.121Z,31.80
2023-04-29T04:57:49.820Z,27.93
2023-04-29T05:00:18.857Z,33.33
2023-04-29T05:02:47.804Z,28.47
2023-04-29T05:05:21.144Z,35.50
2023-04-29T05:07:49.793Z,28.73
2023-04-29T05:10:20.648Z,30.23
2023-04-29T05:12:49.381Z,27.40
2023-04-29T05:15:19.376Z,34.80
2023-04-29T05:17:48.110Z,30.77
2023-04-29T05:20:18.242Z,39.80
2023-04-29T05:22:46.904Z,34.97
2023-04-29T05:25:15.651Z,38.23
2023-04-29T05:27:44.418Z,25.57
2023-04-29T05:30:13.651Z,32.23
2023-04-29T05:32:42.289Z,29.77
2023-04-29T05:35:11.113Z,34.03
2023-04-29T05:37:44.405Z,29.60
2023-04-29T05:40:13.674Z,37.67
2023-04-29T05:42:45.350Z,32.33
2023-04-29T05:45:14.202Z,37.00
2023-04-29T05:47:42.934Z,23.73
2023-04-29T05:50:12.624Z,27.33
2023-04-29T05:52:42.752Z,32.40
2023-04-29T05:55:11.674Z,32.20
2023-04-29T05:57:40.657Z,28.60
2023-04-29T06:00:10.489Z,31.23
2023-04-29T06:02:50.579Z,28.93
2023-04-29T06:05:27.263Z,33.03
2023-04-29T06:07:58.139Z,33.30
2023-04-29T06:10:27.196Z,34.63
2023-04-29T06:12:55.902Z,31.90
2023-04-29T06:15:24.718Z,31.83
2023-04-29T06:17:53.658Z,25.47
2023-04-29T06:20:22.479Z,30.97
2023-04-29T06:22:51.197Z,38.73
2023-04-29T06:25:21.231Z,35.27
2023-04-29T06:27:50.695Z,29.27
2023-04-29T06:30:19.607Z,39.23
2023-04-29T06:32:48.203Z,33.17
2023-04-29T06:35:17.132Z,31.87
2023-04-29T06:37:45.786Z,31.43
2023-04-29T06:40:14.800Z,33.20
2023-04-29T06:42:44.882Z,29.70
2023-04-29T06:45:18.936Z,33.80
2023-04-29T06:47:47.845Z,25.53
2023-04-29T06:50:16.705Z,37.33
2023-04-29T06:52:45.351Z,28.40
2023-04-29T06:55:14.049Z,34.90
2023-04-29T06:57:44.045Z,21.83
2023-04-29T07:00:15.710Z,33.30
2023-04-29T07:02:44.489Z,27.53
2023-04-29T07:05:15.356Z,27.10
2023-04-29T07:07:43.950Z,26.67
2023-04-29T07:10:12.559Z,26.30
2023-04-29T07:12:41.179Z,27.33
2023-04-29T07:15:11.903Z,31.87
2023-04-29T07:17:40.678Z,25.80
2023-04-29T07:20:10.510Z,35.10
2023-04-29T07:22:39.271Z,27.17
2023-04-29T07:25:08.194Z,36.60
2023-04-29T07:27:36.922Z,29.97
2023-04-29T07:30:06.475Z,29.07
2023-04-29T07:32:37.227Z,22.60
2023-04-29T07:35:11.183Z,32.93
2023-04-29T07:37:43.973Z,22.43
2023-04-29T07:40:13.488Z,22.13
2023-04-29T07:42:42.184Z,25.93
2023-04-29T07:45:11.708Z,27.00
2023-04-29T07:47:44.416Z,26.27
2023-04-29T07:50:13.453Z,26.43
2023-04-29T07:52:42.059Z,25.63
2023-04-29T07:55:10.902Z,25.60
2023-04-29T07:57:39.909Z,25.10
2023-04-29T08:00:09.929Z,25.10
2023-04-29T08:02:38.814Z,29.87
2023-04-29T08:05:09.888Z,34.47
2023-04-29T08:07:38.776Z,27.57
2023-04-29T08:10:08.584Z,25.60
2023-04-29T08:12:37.195Z,25.60
2023-04-29T08:15:08.419Z,27.53
2023-04-29T08:17:38.504Z,28.63
2023-04-29T08:20:09.885Z,26.53
2023-04-29T08:22:38.563Z,26.80
2023-04-29T08:25:07.984Z,27.60
2023-04-29T08:27:36.844Z,29.27
2023-04-29T08:30:09.627Z,25.23
2023-04-29T08:32:38.278Z,27.57
2023-04-29T08:35:09.617Z,30.57
2023-04-29T08:37:38.546Z,23.43
2023-04-29T08:40:10.370Z,29.80
2023-04-29T08:42:39.290Z,27.07
2023-04-29T08:45:08.669Z,25.93
2023-04-29T08:47:38.929Z,26.00
2023-04-29T08:50:11.032Z,20.83
2023-04-29T08:52:39.743Z,24.07
2023-04-29T08:55:09.942Z,23.50
2023-04-29T08:57:40.384Z,21.50
2023-04-29T09:00:10.918Z,25.43
2023-04-29T09:02:46.248Z,22.07
2023-04-29T09:05:16.611Z,25.17
2023-04-29T09:07:46.106Z,20.37
2023-04-29T09:10:16.077Z,23.43
2023-04-29T09:12:44.750Z,22.63
2023-04-29T09:15:13.621Z,28.93
2023-04-29T09:17:43.789Z,24.20
2023-04-29T09:20:30.920Z,28.40
2023-04-29T09:23:03.059Z,21.10
2023-04-29T09:25:31.899Z,24.10
2023-04-29T09:28:01.632Z,21.00
2023-04-29T09:30:30.500Z,24.10
2023-04-29T09:33:09.986Z,22.43
2023-04-29T09:35:42.257Z,20.77
2023-04-29T09:38:13.197Z,25.10
2023-04-29T09:40:57.404Z,21.87
2023-04-29T09:43:27.524Z,23.70
2023-04-29T09:45:57.192Z,18.03
2023-04-29T09:48:33.769Z,27.53
2023-04-29T09:51:04.574Z,17.80
2023-04-29T09:53:37.967Z,18.50
2023-04-29T09:56:07.393Z,25.40
2023-04-29T09:58:38.326Z,23.73
2023-04-29T10:01:08.208Z,22.00
2023-04-29T10:03:38.617Z,19.60
2023-04-29T10:06:09.522Z,20.23
2023-04-29T10:08:38.949Z,25.93
2023-04-29T10:11:07.838Z,19.13
2023-04-29T10:13:38.581Z,19.43
2023-04-29T10:16:21.444Z,20.63
2023-04-29T10:18:54.799Z,18.17
2023-04-29T10:21:29.881Z,22.00
2023-04-29T10:23:59.890Z,19.90
2023-04-29T10:26:30.132Z,21.83
2023-04-29T10:29:00.154Z,20.50
2023-04-29T10:31:30.184Z,24.03
2023-04-29T10:34:00.650Z,20.17
2023-04-29T10:36:31.590Z,21.47
2023-04-29T10:39:03.826Z,19.63
2023-04-29T10:41:38.973Z,20.40
2023-04-29T10:44:07.683Z,19.13
2023-04-29T10:46:37.851Z,21.80
2023-04-29T10:49:07.513Z,19.20
2023-04-29T10:51:42.033Z,19.30
2023-04-29T10:54:13.514Z,21.97
2023-04-29T10:56:49.448Z,18.90
2023-04-29T10:59:21.753Z,21.70
2023-04-29T11:01:51.422Z,20.70
2023-04-29T11:04:21.435Z,22.73
2023-04-29T11:06:54.367Z,18.47
2023-04-29T11:09:26.453Z,24.57
2023-04-29T11:12:00.693Z,21.67
2023-04-29T11:14:32.338Z,20.33
2023-04-29T11:17:03.179Z,19.63
2023-04-29T11:19:36.733Z,19.07
2023-04-29T11:22:15.104Z,17.77
2023-04-29T11:24:52.138Z,18.57
2023-04-29T11:27:25.233Z,22.70
2023-04-29T11:29:58.416Z,20.87
2023-04-29T11:32:28.919Z,23.13
2023-04-29T11:35:08.428Z,18.63
2023-04-29T11:37:39.431Z,20.17
2023-04-29T11:40:09.339Z,24.60
2023-04-29T11:42:42.135Z,20.13
2023-04-29T11:45:12.196Z,23.37
2023-04-29T11:47:44.938Z,21.03
2023-04-29T11:50:16.790Z,19.97
2023-04-29T11:52:48.935Z,19.07
2023-04-29T11:55:17.801Z,22.97
2023-04-29T11:57:47.140Z,18.67
2023-04-29T12:00:16.833Z,20.53
2023-04-29T12:02:47.250Z,20.47
2023-04-29T12:05:17.739Z,23.17
2023-04-29T12:07:47.885Z,18.73
2023-04-29T12:10:16.692Z,20.90
2023-04-29T12:12:46.445Z,17.87
2023-04-29T12:15:15.420Z,21.07
2023-04-29T12:17:46.503Z,19.27
2023-04-29T12:20:15.609Z,19.33
2023-04-29T12:22:44.954Z,19.53
2023-04-29T12:25:16.760Z,22.07
2023-04-29T12:27:45.454Z,19.63
2023-04-29T12:30:14.361Z,21.23
2023-04-29T12:32:43.031Z,19.80
2023-04-29T12:35:18.176Z,19.90
2023-04-29T12:37:50.816Z,21.03
2023-04-29T12:40:21.537Z,22.87
2023-04-29T12:42:50.391Z,19.70
2023-04-29T12:45:33.169Z,22.30
2023-04-29T12:48:03.318Z,19.83
2023-04-29T12:50:36.057Z,19.60
2023-04-29T12:53:06.543Z,21.47
2023-04-29T12:55:37.858Z,19.70
2023-04-29T12:58:07.464Z,20.87
2023-04-29T13:00:37.528Z,19.27
2023-04-29T13:03:06.466Z,18.40
2023-04-29T13:05:35.526Z,21.37
2023-04-29T13:08:06.216Z,18.83
2023-04-29T13:10:36.839Z,19.77
2023-04-29T13:13:05.641Z,20.37
2023-04-29T13:15:34.271Z,19.30
2023-04-29T13:18:03.053Z,19.47
2023-04-29T13:20:32.564Z,20.63
2023-04-29T13:23:01.137Z,18.67
2023-04-29T13:25:30.059Z,26.27
2023-04-29T13:28:00.030Z,19.03
2023-04-29T13:30:28.671Z,20.10
2023-04-29T13:33:04.047Z,20.20
2023-04-29T13:35:38.495Z,20.50
2023-04-29T13:38:07.523Z,20.37
2023-04-29T13:40:41.729Z,19.83
2023-04-29T13:43:23.347Z,19.70
2023-04-29T13:45:57.984Z,21.23
2023-04-29T13:54:10.678Z,25.00
2023-04-29T13:59:33.534Z,20.83
2023-04-29T14:04:16.449Z,22.37
2023-04-29T14:06:45.175Z,24.77
2023-04-29T14:09:13.904Z,20.27
2023-04-29T14:11:42.572Z,22.23
2023-04-29T14:14:12.707Z,20.23
2023-04-29T14:16:41.502Z,19.67
2023-04-29T14:19:10.398Z,20.50
2023-04-29T14:21:39.032Z,18.10
2023-04-29T14:24:07.769Z,19.93
2023-04-29T14:26:39.428Z,20.80
2023-04-29T14:29:08.015Z,20.20
2023-04-29T14:31:39.108Z,20.97
2023-04-29T14:34:08.138Z,21.13
2023-04-29T14:36:36.768Z,18.97
2023-04-29T14:39:05.640Z,18.97
2023-04-29T14:41:34.396Z,20.23
2023-04-29T14:44:03.101Z,18.23
2023-04-29T14:46:32.986Z,22.13
2023-04-29T14:49:03.243Z,20.07
2023-04-29T14:51:32.222Z,22.13
2023-04-29T14:54:00.930Z,19.83
2023-04-29T14:56:29.649Z,26.97
2023-04-29T14:58:58.289Z,20.07
2023-04-29T15:01:28.691Z,30.30
2023-04-29T15:03:58.635Z,21.07
2023-04-29T15:06:29.497Z,24.53
2023-04-29T15:08:58.223Z,19.30
2023-04-29T15:11:27.097Z,25.27
2023-04-29T15:13:55.867Z,20.33
2023-04-29T15:16:24.571Z,25.63
2023-04-29T15:18:53.389Z,18.97
2023-04-29T15:21:22.278Z,31.83
2023-04-29T15:23:54.722Z,21.07
2023-04-29T15:26:23.360Z,21.30
2023-04-29T15:28:51.983Z,19.83
2023-04-29T15:31:22.268Z,19.67
2023-04-29T15:33:55.653Z,19.00
2023-04-29T15:36:30.299Z,21.13
2023-04-29T15:39:00.729Z,19.33
2023-04-29T15:41:29.433Z,21.23
2023-04-29T15:43:58.572Z,20.47
2023-04-29T15:46:27.990Z,18.53
2023-04-29T15:48:56.682Z,20.63
2023-04-29T15:51:25.463Z,22.47
2023-04-29T15:53:54.115Z,19.30
2023-04-29T15:56:25.460Z,19.73
2023-04-29T15:58:58.850Z,19.93
2023-04-29T16:01:28.310Z,26.50
2023-04-29T16:03:57.051Z,20.07
2023-04-29T16:06:28.573Z,22.83
2023-04-29T16:08:57.275Z,24.27
2023-04-29T16:11:27.769Z,26.90
2023-04-29T16:13:59.262Z,20.60
2023-04-29T16:16:28.047Z,20.20
2023-04-29T16:18:57.112Z,20.10
2023-04-29T16:21:28.304Z,22.60
2023-04-29T16:23:56.968Z,18.20
2023-04-29T16:26:30.461Z,21.40
2023-04-29T16:28:59.923Z,18.87
2023-04-29T16:31:29.460Z,20.33
2023-04-29T16:33:58.319Z,19.00
2023-04-29T16:36:28.520Z,26.23
2023-04-29T16:38:58.067Z,19.53
2023-04-29T16:41:28.184Z,20.60
2023-04-29T16:43:56.940Z,18.33
2023-04-29T16:46:26.025Z,21.27
2023-04-29T16:49:01.788Z,17.57
2023-04-29T16:51:32.689Z,19.40
2023-04-29T16:54:05.582Z,18.87
2023-04-29T16:56:35.941Z,17.80
2023-04-29T16:59:06.975Z,17.13
2023-04-29T17:01:35.743Z,18.23
2023-04-29T17:04:08.404Z,18.10
2023-04-29T17:06:40.876Z,20.93
2023-04-29T17:09:20.285Z,17.33
2023-04-29T17:11:50.658Z,19.17
2023-04-29T17:14:29.722Z,17.20
2023-04-29T17:17:00.269Z,17.87
2023-04-29T17:19:36.900Z,26.93
2023-04-29T17:22:05.553Z,17.50
2023-04-29T17:24:36.937Z,21.43
2023-04-29T17:27:11.908Z,18.70
2023-04-29T17:29:43.735Z,17.10
2023-04-29T17:32:17.427Z,17.63
2023-04-29T17:34:49.421Z,18.10
2023-04-29T17:37:24.823Z,17.37
2023-04-29T17:39:54.023Z,17.47
2023-04-29T17:42:24.559Z,18.53
2023-04-29T17:44:55.522Z,18.37
2023-04-29T17:47:34.269Z,19.10
2023-04-29T17:50:04.844Z,18.37
2023-04-29T17:52:33.524Z,23.70
2023-04-29T17:55:04.168Z,18.37
2023-04-29T17:57:34.432Z,26.67
2023-04-29T18:00:03.416Z,19.57
2023-04-29T18:02:34.655Z,26.93
2023-04-29T18:05:04.205Z,17.00
2023-04-29T18:07:35.765Z,21.90
2023-04-29T18:10:05.881Z,16.17
2023-04-29T18:12:36.062Z,22.73
2023-04-29T18:15:06.265Z,18.33
2023-04-29T18:17:34.957Z,24.27
2023-04-29T18:20:04.028Z,16.40
2023-04-29T18:22:33.131Z,23.13
2023-04-29T18:25:01.747Z,16.83
2023-04-29T18:27:30.476Z,19.23
2023-04-29T18:30:00.533Z,15.80
2023-04-29T18:32:29.232Z,19.97
2023-04-29T18:34:59.638Z,16.80
2023-04-29T18:37:28.293Z,20.97
2023-04-29T18:39:57.145Z,16.40
2023-04-29T18:42:26.065Z,19.57
2023-04-29T18:44:55.221Z,15.83
2023-04-29T18:47:25.248Z,18.70
2023-04-29T18:49:54.374Z,15.67
2023-04-29T18:52:23.224Z,15.83
2023-04-29T18:54:52.014Z,17.20
2023-04-29T18:57:20.740Z,15.77
2023-04-29T18:59:49.572Z,22.57
2023-04-29T19:02:18.219Z,16.17
2023-04-29T19:04:48.327Z,15.03
2023-04-29T19:07:17.037Z,13.53
2023-04-29T19:09:45.762Z,20.23
2023-04-29T19:12:14.488Z,13.97
2023-04-29T19:14:43.321Z,16.17
2023-04-29T19:17:12.116Z,13.90
2023-04-29T19:19:40.928Z,22.57
2023-04-29T19:22:11.376Z,16.80
2023-04-29T19:24:42.128Z,19.70
2023-04-29T19:27:11.056Z,16.33
2023-04-29T19:29:40.245Z,23.03
2023-04-29T19:32:08.932Z,18.47
2023-04-29T19:34:37.663Z,31.33
2023-04-29T19:37:06.404Z,21.37
2023-04-29T19:39:36.795Z,21.93
2023-04-29T19:42:05.609Z,25.67
2023-04-29T19:44:34.270Z,22.20
2023-04-29T19:47:03.834Z,26.23
2023-04-29T19:49:32.686Z,27.00
2023-04-29T19:52:02.148Z,20.03
2023-04-29T19:54:31.056Z,26.40
2023-04-29T19:57:01.095Z,21.50
2023-04-29T19:59:29.826Z,24.83
2023-04-29T20:01:58.548Z,21.20
2023-04-29T20:04:27.276Z,22.73
2023-04-29T20:06:55.918Z,27.77
2023-04-29T20:09:24.590Z,21.67
2023-04-29T20:11:56.370Z,16.67
2023-04-29T20:14:26.602Z,30.63
2023-04-29T20:16:56.251Z,20.83
2023-04-29T20:19:26.447Z,19.37
2023-04-29T20:21:55.101Z,22.40
2023-04-29T20:24:23.985Z,21.33
2023-04-29T20:26:52.820Z,22.10
2023-04-29T20:29:21.901Z,20.93
2023-04-29T20:31:52.107Z,21.40
2023-04-29T20:34:21.243Z,21.83
2023-04-29T20:36:50.244Z,24.13
2023-04-29T20:39:19.074Z,15.57
2023-04-29T20:41:50.608Z,18.97
2023-04-29T20:44:19.317Z,18.33
2023-04-29T20:46:47.961Z,18.80
2023-04-29T20:49:18.017Z,16.03
2023-04-29T20:51:46.721Z,20.20
2023-04-29T20:54:15.398Z,18.37
2023-04-29T20:56:44.459Z,31.77
2023-04-29T20:59:13.140Z,20.27
2023-04-29T21:01:41.838Z,29.47
2023-04-29T21:04:10.673Z,26.60
2023-04-29T21:06:41.496Z,27.17
2023-04-29T21:09:11.133Z,24.80
2023-04-29T21:11:39.779Z,25.10
2023-04-29T21:14:08.381Z,26.83
2023-04-29T21:16:37.007Z,27.53
2023-04-29T21:19:05.736Z,17.40
2023-04-29T21:21:34.481Z,19.90
2023-04-29T21:24:04.813Z,19.73
2023-04-29T21:26:33.482Z,33.77
2023-04-29T21:29:03.264Z,20.63
2023-04-29T21:31:32.078Z,24.53
2023-04-29T21:34:01.430Z,20.50
2023-04-29T21:36:32.052Z,24.83
2023-04-29T21:39:00.755Z,22.40
2023-04-29T21:41:39.927Z,21.77
2023-04-29T21:44:08.756Z,28.33
2023-04-29T21:46:37.930Z,27.03
2023-04-29T21:49:09.124Z,18.17
2023-04-29T21:51:37.953Z,27.00
2023-04-29T21:54:08.580Z,21.53
2023-04-29T21:56:38.753Z,29.80
2023-04-29T21:59:07.457Z,18.00
2023-04-29T22:01:49.169Z,27.87
2023-04-29T22:04:20.097Z,16.30
2023-04-29T22:06:48.841Z,19.23
2023-04-29T22:09:17.615Z,18.77
2023-04-29T22:11:49.525Z,21.80
2023-04-29T22:14:18.358Z,17.07
2023-04-29T22:16:50.688Z,23.40
2023-04-29T22:19:26.394Z,21.40
2023-04-29T22:21:55.126Z,15.37
2023-04-29T22:24:23.861Z,17.80
2023-04-29T22:26:55.342Z,18.93
2023-04-29T22:29:24.142Z,13.70
2023-04-29T22:31:52.884Z,22.40
2023-04-29T22:34:21.519Z,23.67
2023-04-29T22:36:50.137Z,20.77
2023-04-29T22:39:18.805Z,15.77
2023-04-29T22:41:47.412Z,24.87
2023-04-29T22:44:17.412Z,15.97
2023-04-29T22:46:46.070Z,27.77
2023-04-29T22:49:14.765Z,20.57
2023-04-29T22:51:43.436Z,31.47
2023-04-29T22:54:12.086Z,18.67
2023-04-29T22:56:40.848Z,20.20
2023-04-29T22:59:09.458Z,25.83
2023-04-29T23:01:39.523Z,23.17
2023-04-29T23:04:08.255Z,22.60
2023-04-29T23:06:36.909Z,26.63
2023-04-29T23:09:05.985Z,22.40
2023-04-29T23:11:34.885Z,23.37
2023-04-29T23:14:03.627Z,22.43
2023-04-29T23:16:32.429Z,19.83
2023-04-29T23:19:02.608Z,19.87
2023-04-29T23:21:31.309Z,15.73
2023-04-29T23:24:00.051Z,20.40
2023-04-29T23:26:28.649Z,21.77
2023-04-29T23:28:57.240Z,19.30
2023-04-29T23:31:25.986Z,21.17
2023-04-29T23:33:54.705Z,20.10
2023-04-29T23:36:24.901Z,16.73
2023-04-29T23:38:53.610Z,17.07
2023-04-29T23:41:22.287Z,17.63
2023-04-29T23:43:50.983Z,26.73
2023-04-29T23:46:19.692Z,20.37
2023-04-29T23:48:48.338Z,23.10
2023-04-29T23:51:17.341Z,14.67
2023-04-29T23:53:47.316Z,23.00
2023-04-29T23:56:15.872Z,15.80
2023-04-29T23:58:44.473Z,25.30
